SONKA LKPD-LKPD
Flight info
| Callsign | SONKA |
|---|---|
| Flight time | 0h 0m |
| Altitude | 6000 |
| Route | PD431 DCT PD432 DCT PD433 DCT PD434 DCT ORLIX DCT PD435 DCT PD27F |
| Aircraft | E300/L-SDFGRWY/S |
Departure
| Time | 2026-05-04 21:35 |
|---|---|
| Airport | Pardubice Airport (LKPD) |
Arrival
| Time | 2026-05-04 21:36 |
|---|---|
| Airport | Pardubice Airport (LKPD) |
| Time | Latitude | Longitude | Altitude | Speed | Heading |
|---|---|---|---|---|---|
| 2026-05-04 21:32 | 50.01395 | 15.72231 | 745 ft | 0 kts | 94° |
| 2026-05-04 21:34 | 50.01379 | 15.72719 | 787 ft | 122 kts | 93° |
| 2026-05-04 21:35 | 50.01450 | 15.74400 | 850 ft | 161 kts | 77° |
| 2026-05-04 21:35 | 50.01657 | 15.75862 | 944 ft | 153 kts | 73° |
| 2026-05-04 21:35 | 50.01782 | 15.77519 | 1622 ft | 161 kts | 106° |
| 2026-05-04 21:35 | 50.01574 | 15.77970 | 777 ft | 139 kts | 264° |
| 2026-05-04 21:36 | 50.01566 | 15.77256 | 738 ft | 0 kts | 318° |
| 2026-05-04 21:36 | 50.01556 | 15.77253 | 739 ft | 4 kts | 78° |
| 2026-05-04 21:36 | 50.01564 | 15.77212 | 738 ft | 0 kts | 105° |
| 2026-05-04 21:36 | 50.01572 | 15.77268 | 753 ft | 5 kts | 64° |
| 2026-05-04 21:37 | 50.01559 | 15.77266 | 738 ft | 0 kts | 312° |
| 2026-05-04 21:37 | 50.01561 | 15.77251 | 739 ft | 0 kts | 305° |
| 2026-05-04 21:37 | 50.01559 | 15.77243 | 739 ft | 17 kts | 281° |
| 2026-05-04 21:37 | 50.01563 | 15.77221 | 738 ft | 3 kts | 266° |
| 2026-05-04 21:38 | 50.01553 | 15.77225 | 739 ft | 6 kts | 79° |
| 2026-05-04 21:38 | 50.01585 | 15.77338 | 739 ft | 0 kts | 109° |
| 2026-05-04 21:38 | 50.01484 | 15.72138 | 744 ft | 0 kts | 181° |
| 2026-05-04 21:38 | 50.01398 | 15.72156 | 745 ft | 0 kts | 92° |
| 2026-05-04 21:39 | 50.01365 | 15.72984 | 979 ft | 133 kts | 99° |
| 2026-05-04 21:39 | 50.01173 | 15.74492 | 2064 ft | 147 kts | 104° |
| 2026-05-04 21:39 | 50.00997 | 15.75814 | 3683 ft | 126 kts | 103° |
| 2026-05-04 21:39 | 50.00675 | 15.77300 | 4116 ft | 157 kts | 118° |
| 2026-05-04 21:40 | 50.00621 | 15.75445 | 2533 ft | 237 kts | 269° |
| 2026-05-04 21:40 | 50.00411 | 15.73236 | 2633 ft | 196 kts | 255° |
| 2026-05-04 21:40 | 50.00047 | 15.71401 | 3915 ft | 157 kts | 246° |
| 2026-05-04 21:40 | 49.99636 | 15.70049 | 5321 ft | 144 kts | 244° |
| 2026-05-04 21:41 | 49.99348 | 15.68465 | 4497 ft | 206 kts | 279° |
| 2026-05-04 21:41 | 49.99333 | 15.67647 | 4841 ft | 50 kts | 249° |
| 2026-05-04 21:41 | 49.99273 | 15.66677 | 974 ft | 281 kts | 287° |
| 2026-05-04 21:41 | 49.99959 | 15.64226 | 1749 ft | 219 kts | 301° |
| 2026-05-04 21:42 | 50.00549 | 15.61935 | 1441 ft | 233 kts | 262° |
| 2026-05-04 21:42 | 49.99635 | 15.59826 | 1039 ft | 230 kts | 256° |
| 2026-05-04 21:42 | 49.99078 | 15.57992 | 2669 ft | 172 kts | 237° |
| 2026-05-04 21:42 | 49.98463 | 15.56556 | 3915 ft | 161 kts | 231° |
| 2026-05-04 21:43 | 49.97792 | 15.55221 | 5018 ft | 147 kts | 224° |
| 2026-05-04 21:43 | 49.96968 | 15.54418 | 6014 ft | 155 kts | 207° |
| 2026-05-04 21:43 | 49.95814 | 15.53735 | 5943 ft | 203 kts | 199° |
| 2026-05-04 21:43 | 49.94449 | 15.53018 | 6046 ft | 210 kts | 191° |
| 2026-05-04 21:44 | 49.93114 | 15.53333 | 6585 ft | 195 kts | 165° |
| 2026-05-04 21:44 | 49.91898 | 15.54172 | 7265 ft | 190 kts | 155° |
| 2026-05-04 21:44 | 49.91006 | 15.55684 | 7866 ft | 196 kts | 116° |
| 2026-05-04 21:44 | 49.90691 | 15.57655 | 8660 ft | 191 kts | 99° |
| 2026-05-04 21:45 | 49.90475 | 15.59342 | 6179 ft | 116 kts | 109° |
| 2026-05-04 21:45 | 49.89749 | 15.61281 | 1709 ft | 109 kts | 129° |
| 2026-05-04 21:45 | 49.89539 | 15.61566 | 1619 ft | 23 kts | 170° |
| 2026-05-04 21:45 | 50.01484 | 15.72138 | 1571 ft | 4 kts | 181° |
| 2026-05-04 21:46 | 50.01398 | 15.72156 | 745 ft | 0 kts | 92° |
| 2026-05-04 21:46 | 50.01397 | 15.72197 | 745 ft | 0 kts | 94° |
| 2026-05-04 21:50 | 50.01389 | 15.72456 | 744 ft | 94 kts | 94° |
| 2026-05-04 21:50 | 50.01484 | 15.72138 | 744 ft | 0 kts | 181° |
| 2026-05-04 21:50 | 50.01397 | 15.72187 | 745 ft | 0 kts | 93° |
| 2026-05-04 21:51 | 50.01396 | 15.72223 | 745 ft | 39 kts | 94° |
| 2026-05-04 21:51 | 50.01372 | 15.73358 | 1097 ft | 136 kts | 88° |
| 2026-05-04 21:51 | 50.01316 | 15.75084 | 792 ft | 202 kts | 89° |
| 2026-05-04 21:52 | 50.01127 | 15.77103 | 1884 ft | 171 kts | 117° |
| 2026-05-04 21:52 | 50.00497 | 15.78676 | 2498 ft | 183 kts | 128° |
| 2026-05-04 21:52 | 49.99598 | 15.79947 | 3325 ft | 187 kts | 168° |
| 2026-05-04 21:52 | 49.98437 | 15.79376 | 3889 ft | 193 kts | 236° |
| 2026-05-04 21:53 | 49.97822 | 15.77434 | 3077 ft | 187 kts | 236° |
| 2026-05-04 21:53 | 49.97178 | 15.76587 | 976 ft | 153 kts | 246° |
| 2026-05-04 21:53 | 50.01484 | 15.72138 | 744 ft | 0 kts | 181° |
| 2026-05-04 21:53 | 50.01396 | 15.72226 | 745 ft | 0 kts | 95° |
| 2026-05-04 21:54 | 50.01391 | 15.72364 | 749 ft | 76 kts | 92° |
| 2026-05-04 21:54 | 50.01374 | 15.73713 | 1285 ft | 157 kts | 89° |
| 2026-05-04 21:54 | 50.01424 | 15.75549 | 1687 ft | 193 kts | 79° |
| 2026-05-04 21:54 | 50.01725 | 15.77495 | 2785 ft | 155 kts | 91° |
| 2026-05-04 21:55 | 50.01844 | 15.78823 | 2954 ft | 85 kts | 215° |
| 2026-05-04 21:55 | 50.02371 | 15.79758 | 926 ft | 120 kts | 106° |
| 2026-05-04 21:55 | 50.02804 | 15.80969 | 1082 ft | 183 kts | 75° |
| 2026-05-04 21:55 | 50.02592 | 15.82685 | 997 ft | 175 kts | 175° |
| 2026-05-04 21:56 | 50.01592 | 15.82613 | 1180 ft | 156 kts | 255° |
| 2026-05-04 21:56 | 50.00644 | 15.81275 | 1276 ft | 191 kts | 218° |
| 2026-05-04 21:56 | 49.99568 | 15.80074 | 2085 ft | 180 kts | 212° |
| 2026-05-04 21:56 | 49.98502 | 15.79061 | 2854 ft | 195 kts | 205° |
| 2026-05-04 21:57 | 49.97276 | 15.78420 | 3535 ft | 195 kts | 182° |
| 2026-05-04 21:57 | 49.96066 | 15.78276 | 4183 ft | 197 kts | 188° |
| 2026-05-04 21:57 | 49.94586 | 15.77936 | 3866 ft | 223 kts | 186° |
| 2026-05-04 21:57 | 49.93239 | 15.77804 | 5008 ft | 189 kts | 175° |
| 2026-05-04 21:58 | 49.92831 | 15.79569 | 5138 ft | 221 kts | 57° |
| 2026-05-04 21:58 | 49.93838 | 15.81402 | 5380 ft | 225 kts | 43° |
| 2026-05-04 21:58 | 49.94869 | 15.83376 | 4862 ft | 246 kts | 54° |
| 2026-05-04 21:58 | 49.95791 | 15.85060 | 5207 ft | 179 kts | 37° |
| 2026-05-04 21:59 | 49.96846 | 15.86280 | 4412 ft | 195 kts | 13° |
| 2026-05-04 21:59 | 49.97395 | 15.85682 | 2837 ft | 185 kts | 322° |
| 2026-05-04 21:59 | 49.98192 | 15.85251 | 12048 ft | 123 kts | 21° |
| 2026-05-04 21:59 | 49.98778 | 15.85275 | 9867 ft | 73 kts | 5° |
| 2026-05-04 22:00 | 49.98830 | 15.85567 | 6854 ft | 106 kts | 92° |
| 2026-05-04 22:00 | 49.98518 | 15.87296 | 2988 ft | 289 kts | 168° |
| 2026-05-04 22:00 | 49.98044 | 15.85381 | 2613 ft | 266 kts | 334° |
| 2026-05-04 22:00 | 49.99625 | 15.84665 | 2776 ft | 197 kts | 347° |
| 2026-05-04 22:01 | 50.00425 | 15.83676 | 2310 ft | 237 kts | 306° |
| 2026-05-04 22:01 | 50.01064 | 15.80358 | 1768 ft | 248 kts | 277° |
| 2026-05-04 22:01 | 50.01235 | 15.77654 | 1138 ft | 256 kts | 272° |
| 2026-05-04 22:01 | 50.01279 | 15.75162 | 839 ft | 209 kts | 280° |
| 2026-05-04 22:02 | 50.01352 | 15.73010 | 745 ft | 61 kts | 11° |
| 2026-05-04 22:02 | 50.01426 | 15.71760 | 906 ft | 160 kts | 272° |
| 2026-05-04 22:02 | 50.01557 | 15.71256 | 824 ft | 144 kts | 20° |
| 2026-05-04 22:02 | 50.01412 | 15.72252 | 826 ft | 175 kts | 98° |
| 2026-05-04 22:03 | 50.01355 | 15.73604 | 741 ft | 52 kts | 92° |
| 2026-05-04 22:03 | 50.01352 | 15.73726 | 741 ft | 0 kts | 92° |
| 2026-05-04 22:03 | 50.01349 | 15.73865 | 741 ft | 33 kts | 85° |
| 2026-05-04 22:03 | 50.01333 | 15.74105 | 743 ft | 26 kts | 169° |
| 2026-05-04 22:04 | 50.01322 | 15.74137 | 743 ft | 19 kts | 301° |
| 2026-05-04 22:04 | 50.01349 | 15.73608 | 741 ft | 120 kts | 272° |
| 2026-05-04 22:04 | 50.01388 | 15.71875 | 906 ft | 182 kts | 278° |
| 2026-05-04 22:04 | 50.01645 | 15.69794 | 1072 ft | 214 kts | 280° |
| 2026-05-04 22:05 | 50.02205 | 15.69290 | 983 ft | 161 kts | 117° |
| 2026-05-04 22:05 | 50.01453 | 15.70941 | 910 ft | 203 kts | 96° |
| 2026-05-04 22:05 | 50.01368 | 15.73180 | 767 ft | 178 kts | 94° |
| 2026-05-04 22:05 | 50.01330 | 15.74388 | 744 ft | 55 kts | 92° |
| 2026-05-04 22:06 | 50.01315 | 15.74752 | 742 ft | 18 kts | 126° |
| 2026-05-04 22:06 | 50.01324 | 15.74819 | 742 ft | 10 kts | 275° |
| 2026-05-04 22:06 | 50.01328 | 15.74636 | 743 ft | 17 kts | 272° |
| 2026-05-04 22:06 | 50.01411 | 15.74560 | 742 ft | 17 kts | 3° |
| 2026-05-04 22:07 | 50.01536 | 15.74566 | 741 ft | 18 kts | 13° |
| 2026-05-04 22:07 | 50.01558 | 15.74628 | 741 ft | 1 kts | 95° |
| 2026-05-04 22:07 | 50.01558 | 15.74630 | 741 ft | 0 kts | 95° |
| 2026-05-04 22:12 | 50.01558 | 15.74631 | 741 ft | 3 kts | 95° |
| 2026-05-04 22:12 | 50.01496 | 15.75144 | 741 ft | 73 kts | 117° |